Time,TemperatureF,DewpointF,PressureIn,WindDirection,WindDirectionDegrees,WindSpeedMPH,WindSpeedGustMPH,Humidity,HourlyPrecipIn,Conditions,Clouds,dailyrainin,SoftwareType,DateUTC
2013-04-24 00:00:00,50.7,25.4,29.72,North,0,3.8,3.8,37,0.00,CLR,,0.00,WeatherDisplay:10.37,2013-04-24 04:00:00,
2013-04-24 00:01:00,50.7,25.4,29.72,North,0,3.8,3.8,37,0.00,CLR,,0.00,WeatherDisplay:10.37,2013-04-24 04:01:00,
2013-04-24 00:06:00,50.7,25.4,29.72,North,0,3.8,3.8,37,0.00,CLR,,0.00,WeatherDisplay:10.37,2013-04-24 04:06:00,
2013-04-24 00:11:00,50.7,25.4,29.72,North,0,3.8,3.8,37,0.00,CLR,,0.00,WeatherDisplay:10.37,2013-04-24 04:11:00,
2013-04-24 00:16:00,50.7,25.4,29.72,North,0,3.8,3.8,37,0.00,CLR,,0.00,WeatherDisplay:10.37,2013-04-24 04:16:00,
2013-04-24 00:21:00,50.7,25.4,29.72,North,0,3.8,3.8,37,0.00,CLR,,0.00,WeatherDisplay:10.37,2013-04-24 04:21:00,
2013-04-24 00:26:00,45.0,20.2,29.72,NNW,337,5.8,5.8,37,0.00,CLR,,0.00,WeatherDisplay:10.37,2013-04-24 04:26:00,
2013-04-24 00:31:00,44.8,20.1,29.72,NNW,337,5.8,5.8,37,0.00,CLR,,0.00,WeatherDisplay:10.37,2013-04-24 04:31:00,
2013-04-24 00:36:00,44.8,19.4,29.72,NNW,337,5.8,5.8,36,0.00,CLR,,0.00,WeatherDisplay:10.37,2013-04-24 04:36:00,
2013-04-24 00:41:00,44.8,19.4,29.72,NNW,337,5.8,5.8,36,0.00,CLR,,0.00,WeatherDisplay:10.37,2013-04-24 04:41:00,
2013-04-24 00:46:00,44.8,19.4,29.73,NNW,337,5.8,5.8,36,0.00,CLR,,0.00,WeatherDisplay:10.37,2013-04-24 04:46:00,
2013-04-24 00:51:00,44.8,19.4,29.73,NNW,337,5.8,5.8,36,0.00,CLR,,0.00,WeatherDisplay:10.37,2013-04-24 04:51:00,
2013-04-24 00:56:00,44.8,19.4,29.73,NNW,337,5.8,5.8,36,0.00,CLR,,0.00,WeatherDisplay:10.37,2013-04-24 04:56:00,
2013-04-24 01:01:00,44.8,19.4,29.73,NNW,337,5.8,5.8,36,0.00,CLR,,0.00,WeatherDisplay:10.37,2013-04-24 05:01:00,
2013-04-24 01:06:00,44.8,19.4,29.73,NNW,337,5.8,5.8,36,0.00,CLR,,0.00,WeatherDisplay:10.37,2013-04-24 05:06:00,
2013-04-24 01:11:00,44.8,19.4,29.72,NNW,337,5.8,5.8,36,0.00,CLR,,0.00,WeatherDisplay:10.37,2013-04-24 05:11:00,
2013-04-24 01:16:00,44.8,19.4,29.71,NNW,337,5.8,5.8,36,0.00,CLR,,0.00,WeatherDisplay:10.37,2013-04-24 05:16:00,
2013-04-24 01:21:00,44.8,19.4,29.71,NNW,337,5.8,5.8,36,0.00,CLR,,0.00,WeatherDisplay:10.37,2013-04-24 05:21:00,
2013-04-24 01:26:00,44.8,19.4,29.66,NNW,337,5.8,5.8,36,0.00,CLR,,0.00,WeatherDisplay:10.37,2013-04-24 05:26:00,
2013-04-24 01:31:00,44.8,19.4,29.72,NNW,337,5.8,5.8,36,0.00,CLR,,0.00,WeatherDisplay:10.37,2013-04-24 05:31:00,
2013-04-24 01:36:00,44.8,19.4,29.66,NNW,337,5.8,5.8,36,0.00,CLR,,0.00,WeatherDisplay:10.37,2013-04-24 05:36:00,
2013-04-24 01:41:00,44.8,19.4,29.67,NNW,337,5.8,5.8,36,0.00,CLR,,0.00,WeatherDisplay:10.37,2013-04-24 05:41:00,
2013-04-24 01:46:00,44.8,18.8,29.67,NNW,337,5.8,5.8,35,0.00,CLR,,0.00,WeatherDisplay:10.37,2013-04-24 05:46:00,
2013-04-24 01:51:00,44.8,18.8,29.68,NNW,337,5.8,5.8,35,0.00,CLR,,0.00,WeatherDisplay:10.37,2013-04-24 05:51:00,
2013-04-24 01:56:00,44.8,18.8,29.68,NNW,337,5.8,5.8,35,0.00,CLR,,0.00,WeatherDisplay:10.37,2013-04-24 05:56:00,
2013-04-24 02:01:00,44.8,18.8,29.69,NNW,337,5.8,5.8,35,0.00,CLR,,0.00,WeatherDisplay:10.37,2013-04-24 06:01:00,
2013-04-24 02:06:00,44.8,18.8,29.68,NNW,337,5.8,5.8,35,0.00,CLR,,0.00,WeatherDisplay:10.37,2013-04-24 06:06:00,
2013-04-24 02:11:00,44.8,18.8,29.68,NNW,337,5.8,5.8,35,0.00,CLR,,0.00,WeatherDisplay:10.37,2013-04-24 06:11:00,
2013-04-24 02:16:00,42.4,16.7,29.69,NNW,337,4.0,4.0,35,0.00,CLR,,0.00,WeatherDisplay:10.37,2013-04-24 06:16:00,
2013-04-24 02:21:00,42.4,16.7,29.68,NNW,337,4.0,4.0,35,0.00,CLR,,0.00,WeatherDisplay:10.37,2013-04-24 06:21:00,
2013-04-24 02:26:00,42.4,16.7,29.68,NNW,337,4.0,4.0,35,0.00,CLR,,0.00,WeatherDisplay:10.37,2013-04-24 06:26:00,
2013-04-24 02:31:00,42.4,16.7,29.69,NNW,337,4.0,4.0,35,0.00,CLR,,0.00,WeatherDisplay:10.37,2013-04-24 06:31:00,
2013-04-24 02:36:00,42.4,16.7,29.69,NNW,337,4.0,4.0,35,0.00,CLR,,0.00,WeatherDisplay:10.37,2013-04-24 06:36:00,
2013-04-24 02:41:00,41.5,15.9,29.68,NW,315,6.1,6.1,35,0.00,CLR,,0.00,WeatherDisplay:10.37,2013-04-24 06:41:00,
2013-04-24 02:46:00,41.2,15.6,29.68,NNW,337,6.1,6.1,35,0.00,CLR,,0.00,WeatherDisplay:10.37,2013-04-24 06:46:00,
2013-04-24 02:51:00,41.2,15.6,29.67,NNW,337,6.1,6.1,35,0.00,CLR,,0.00,WeatherDisplay:10.37,2013-04-24 06:51:00,
2013-04-24 02:56:00,41.0,15.4,29.67,NNE,22,6.1,6.1,35,0.00,CLR,,0.00,WeatherDisplay:10.37,2013-04-24 06:56:00,
2013-04-24 03:01:00,41.0,15.4,29.65,NNE,22,6.1,6.1,35,0.00,CLR,,0.00,WeatherDisplay:10.37,2013-04-24 07:01:00,
2013-04-24 03:06:00,41.0,15.4,29.69,NNE,22,6.1,6.1,35,0.00,CLR,,0.00,WeatherDisplay:10.37,2013-04-24 07:06:00,
2013-04-24 03:11:00,41.0,15.4,29.69,NNE,22,6.1,6.1,35,0.00,CLR,,0.00,WeatherDisplay:10.37,2013-04-24 07:11:00,
2013-04-24 03:16:00,41.0,15.4,29.69,NNE,22,6.1,6.1,35,0.00,CLR,,0.00,WeatherDisplay:10.37,2013-04-24 07:16:00,
2013-04-24 03:21:00,41.0,15.4,29.68,NNE,22,6.1,6.1,35,0.00,CLR,,0.00,WeatherDisplay:10.37,2013-04-24 07:21:00,
2013-04-24 03:26:00,41.0,14.7,29.69,NNE,22,6.1,6.1,34,0.00,CLR,,0.00,WeatherDisplay:10.37,2013-04-24 07:26:00,
2013-04-24 03:31:00,39.4,13.3,29.69,NNW,337,6.3,6.3,34,0.00,CLR,,0.00,WeatherDisplay:10.37,2013-04-24 07:31:00,
2013-04-24 03:36:00,39.4,14.0,29.71,NNW,337,6.3,6.3,35,0.00,CLR,,0.00,WeatherDisplay:10.37,2013-04-24 07:36:00,
2013-04-24 03:41:00,38.8,12.8,29.72,North,0,6.3,6.3,34,0.00,CLR,,0.00,WeatherDisplay:10.37,2013-04-24 07:41:00,
2013-04-24 03:46:00,38.8,12.8,29.71,NNW,337,6.3,6.3,34,0.00,CLR,,0.00,WeatherDisplay:10.37,2013-04-24 07:46:00,
2013-04-24 03:51:00,38.7,12.7,29.65,North,0,6.3,6.3,34,0.00,CLR,,0.00,WeatherDisplay:10.37,2013-04-24 07:51:00,
2013-04-24 03:56:00,38.7,12.7,29.67,North,0,6.3,6.3,34,0.00,CLR,,0.00,WeatherDisplay:10.37,2013-04-24 07:56:00,
2013-04-24 04:01:00,38.7,12.7,29.67,North,0,6.3,6.3,34,0.00,CLR,,0.00,WeatherDisplay:10.37,2013-04-24 08:01:00,
2013-04-24 04:06:00,38.3,12.3,29.68,NNW,337,6.3,6.3,34,0.00,CLR,,0.00,WeatherDisplay:10.37,2013-04-24 08:06:00,
2013-04-24 04:11:00,38.3,12.3,29.68,NNW,337,6.3,6.3,34,0.00,CLR,,0.00,WeatherDisplay:10.37,2013-04-24 08:11:00,
2013-04-24 04:16:00,38.3,12.3,29.69,NNW,337,6.3,6.3,34,0.00,CLR,,0.00,WeatherDisplay:10.37,2013-04-24 08:16:00,
2013-04-24 04:21:00,38.3,12.3,29.68,NNW,337,6.3,6.3,34,0.00,CLR,,0.00,WeatherDisplay:10.37,2013-04-24 08:21:00,
2013-04-24 04:26:00,38.3,12.3,29.67,NNW,337,6.3,6.3,34,0.00,CLR,,0.00,WeatherDisplay:10.37,2013-04-24 08:26:00,
2013-04-24 04:31:00,38.3,12.3,29.69,NNW,337,6.3,6.3,34,0.00,CLR,,0.00,WeatherDisplay:10.37,2013-04-24 08:31:00,
2013-04-24 04:36:00,38.3,12.3,29.69,NNW,337,6.3,6.3,34,0.00,CLR,,0.00,WeatherDisplay:10.37,2013-04-24 08:36:00,
2013-04-24 04:41:00,38.3,12.3,29.71,NNW,337,6.3,6.3,34,0.00,CLR,,0.00,WeatherDisplay:10.37,2013-04-24 08:41:00,
2013-04-24 04:46:00,38.3,12.3,29.71,NNW,337,6.3,6.3,34,0.00,CLR,,0.00,WeatherDisplay:10.37,2013-04-24 08:46:00,
2013-04-24 04:51:00,37.6,11.7,29.69,North,0,6.9,6.9,34,0.00,CLR,,0.00,WeatherDisplay:10.37,2013-04-24 08:51:00,
2013-04-24 04:56:00,37.6,11.7,29.69,North,0,6.9,6.9,34,0.00,CLR,,0.00,WeatherDisplay:10.37,2013-04-24 08:56:00,
2013-04-24 05:01:00,37.6,11.7,29.69,North,0,6.9,6.9,34,0.00,CLR,,0.00,WeatherDisplay:10.37,2013-04-24 09:01:00,
2013-04-24 05:06:00,37.6,11.7,29.69,North,0,6.9,6.9,34,0.00,CLR,,0.00,WeatherDisplay:10.37,2013-04-24 09:06:00,
2013-04-24 05:11:00,37.6,11.7,29.71,North,0,6.9,6.9,34,0.00,CLR,,0.00,WeatherDisplay:10.37,2013-04-24 09:11:00,
2013-04-24 05:16:00,37.6,11.7,29.71,North,0,6.9,6.9,34,0.00,CLR,,0.00,WeatherDisplay:10.37,2013-04-24 09:16:00,
2013-04-24 05:21:00,37.6,11.7,29.72,North,0,6.9,6.9,34,0.00,CLR,,0.00,WeatherDisplay:10.37,2013-04-24 09:21:00,
2013-04-24 05:26:00,37.6,11.7,29.72,North,0,6.9,6.9,34,0.00,CLR,,0.00,WeatherDisplay:10.37,2013-04-24 09:26:00,
2013-04-24 05:31:00,37.6,11.0,29.71,North,0,6.9,6.9,33,0.00,CLR,,0.00,WeatherDisplay:10.37,2013-04-24 09:31:00,
2013-04-24 05:36:00,37.6,11.0,29.72,North,0,6.9,6.9,33,0.00,CLR,,0.00,WeatherDisplay:10.37,2013-04-24 09:36:00,
2013-04-24 05:41:00,36.3,9.9,29.69,NNE,22,6.9,6.9,33,0.00,CLR,,0.00,WeatherDisplay:10.37,2013-04-24 09:41:00,
2013-04-24 05:46:00,36.3,9.9,29.75,NNE,22,6.1,6.1,33,0.00,CLR,,0.00,WeatherDisplay:10.37,2013-04-24 09:46:00,
2013-04-24 05:51:00,36.3,9.9,29.74,NNE,22,6.1,6.1,33,0.00,CLR,,0.00,WeatherDisplay:10.37,2013-04-24 09:51:00,
2013-04-24 05:56:00,36.3,9.9,29.73,NNE,22,6.1,6.1,33,0.00,CLR,,0.00,WeatherDisplay:10.37,2013-04-24 09:56:00,
2013-04-24 06:01:00,36.0,9.6,29.73,North,0,6.1,6.1,33,0.00,CLR,,0.00,WeatherDisplay:10.37,2013-04-24 10:01:00,
2013-04-24 06:06:00,35.8,9.4,29.73,NNW,337,6.1,6.1,33,0.00,CLR,,0.00,WeatherDisplay:10.37,2013-04-24 10:06:00,
2013-04-24 06:11:00,35.8,9.4,29.73,NNW,337,6.1,6.1,33,0.00,CLR,,0.00,WeatherDisplay:10.37,2013-04-24 10:11:00,
2013-04-24 06:16:00,35.8,9.4,29.74,NNW,337,6.1,6.1,33,0.00,CLR,,0.00,WeatherDisplay:10.37,2013-04-24 10:16:00,
2013-04-24 06:21:00,35.8,9.4,29.75,NNW,337,6.1,6.1,33,0.00,CLR,,0.00,WeatherDisplay:10.37,2013-04-24 10:21:00,
2013-04-24 06:26:00,35.6,9.3,29.74,NNE,22,5.8,5.8,33,0.00,CLR,,0.00,WeatherDisplay:10.37,2013-04-24 10:26:00,
2013-04-24 06:31:00,35.6,9.3,29.74,NNE,22,5.8,5.8,33,0.00,CLR,,0.00,WeatherDisplay:10.37,2013-04-24 10:31:00,
2013-04-24 06:36:00,35.6,9.3,29.75,NNE,22,5.8,5.8,33,0.00,CLR,,0.00,WeatherDisplay:10.37,2013-04-24 10:36:00,
2013-04-24 06:41:00,35.6,9.3,29.75,NNE,22,5.8,5.8,33,0.00,CLR,,0.00,WeatherDisplay:10.37,2013-04-24 10:41:00,
2013-04-24 06:46:00,35.6,9.3,29.75,NNE,22,5.8,5.8,33,0.00,CLR,,0.00,WeatherDisplay:10.37,2013-04-24 10:46:00,
2013-04-24 06:51:00,35.6,9.3,29.75,NNE,22,5.8,5.8,33,0.00,CLR,,0.00,WeatherDisplay:10.37,2013-04-24 10:51:00,
2013-04-24 06:56:00,35.6,9.3,29.69,NNE,22,5.8,5.8,33,0.00,CLR,,0.00,WeatherDisplay:10.37,2013-04-24 10:56:00,
2013-04-24 07:01:00,34.5,8.3,29.71,NNW,337,6.3,6.3,33,0.00,CLR,,0.00,WeatherDisplay:10.37,2013-04-24 11:01:00,
2013-04-24 07:06:00,34.3,8.2,29.71,North,0,6.3,6.3,33,0.00,CLR,,0.00,WeatherDisplay:10.37,2013-04-24 11:06:00,
2013-04-24 07:11:00,34.3,8.2,29.69,NNW,337,5.1,5.1,33,0.00,CLR,,0.00,WeatherDisplay:10.37,2013-04-24 11:11:00,
2013-04-24 07:16:00,34.2,8.0,29.71,NNW,337,5.8,5.8,33,0.00,CLR,,0.00,WeatherDisplay:10.37,2013-04-24 11:16:00,
2013-04-24 07:21:00,34.2,8.0,29.72,NNW,337,5.8,5.8,33,0.00,CLR,,0.00,WeatherDisplay:10.37,2013-04-24 11:21:00,
2013-04-24 07:26:00,34.2,8.0,29.72,NNW,337,5.8,5.8,33,0.00,CLR,,0.00,WeatherDisplay:10.37,2013-04-24 11:26:00,
2013-04-24 07:31:00,34.2,8.0,29.73,North,0,5.8,5.8,33,0.00,CLR,,0.00,WeatherDisplay:10.37,2013-04-24 11:31:00,
2013-04-24 07:36:00,34.2,8.0,29.75,North,0,5.8,5.8,33,0.00,CLR,,0.00,WeatherDisplay:10.37,2013-04-24 11:36:00,
2013-04-24 07:41:00,34.2,8.0,29.73,North,0,5.8,5.8,33,0.00,CLR,,0.00,WeatherDisplay:10.37,2013-04-24 11:41:00,
2013-04-24 07:46:00,34.2,8.0,29.75,North,0,5.8,5.8,33,0.00,CLR,,0.00,WeatherDisplay:10.37,2013-04-24 11:46:00,
2013-04-24 07:51:00,34.2,7.3,29.75,North,0,5.8,5.8,32,0.00,CLR,,0.00,WeatherDisplay:10.37,2013-04-24 11:51:00,
2013-04-24 07:56:00,34.2,7.3,29.75,North,0,5.8,5.8,32,0.00,CLR,,0.00,WeatherDisplay:10.37,2013-04-24 11:56:00,
2013-04-24 08:01:00,34.5,8.3,29.75,NNW,337,5.8,5.8,33,0.00,CLR,,0.00,WeatherDisplay:10.37,2013-04-24 12:01:00,
2013-04-24 08:06:00,34.5,7.6,29.75,NNW,337,5.8,5.8,32,0.00,CLR,,0.00,WeatherDisplay:10.37,2013-04-24 12:06:00,
2013-04-24 08:11:00,34.5,7.6,29.77,NNW,337,5.8,5.8,32,0.00,CLR,,0.00,WeatherDisplay:10.37,2013-04-24 12:11:00,
2013-04-24 08:16:00,34.5,7.6,29.75,NNW,337,5.8,5.8,32,0.00,CLR,,0.00,WeatherDisplay:10.37,2013-04-24 12:16:00,
2013-04-24 08:21:00,34.0,7.2,29.75,NNW,337,3.6,3.6,32,0.00,CLR,,0.00,WeatherDisplay:10.37,2013-04-24 12:21:00,
2013-04-24 08:26:00,33.8,7.0,29.75,North,0,4.0,4.0,32,0.00,CLR,,0.00,WeatherDisplay:10.37,2013-04-24 12:26:00,
2013-04-24 08:31:00,34.0,7.2,29.73,North,0,4.0,4.0,32,0.00,CLR,,0.00,WeatherDisplay:10.37,2013-04-24 12:31:00,
2013-04-24 08:36:00,34.0,7.2,29.72,North,0,4.0,4.0,32,0.00,CLR,,0.00,WeatherDisplay:10.37,2013-04-24 12:36:00,
2013-04-24 08:41:00,34.0,7.2,29.77,North,0,4.0,4.0,32,0.00,CLR,,0.00,WeatherDisplay:10.37,2013-04-24 12:41:00,
2013-04-24 08:46:00,34.0,7.2,29.75,NW,315,4.6,4.6,32,0.00,CLR,,0.00,WeatherDisplay:10.37,2013-04-24 12:46:00,
2013-04-24 08:51:00,34.0,6.5,29.75,NW,315,4.6,4.6,31,0.00,CLR,,0.00,WeatherDisplay:10.37,2013-04-24 12:51:00,
2013-04-24 08:56:00,34.0,6.5,29.75,NW,315,4.6,4.6,31,0.00,CLR,,0.00,WeatherDisplay:10.37,2013-04-24 12:56:00,
2013-04-24 09:01:00,34.0,6.5,29.74,NW,315,4.6,4.6,31,0.00,CLR,,0.00,WeatherDisplay:10.37,2013-04-24 13:01:00,
2013-04-24 09:06:00,34.0,6.5,29.74,NW,315,4.6,4.6,31,0.00,CLR,,0.00,WeatherDisplay:10.37,2013-04-24 13:06:00,
2013-04-24 09:11:00,34.0,6.5,29.75,NW,315,4.6,4.6,31,0.00,CLR,,0.00,WeatherDisplay:10.37,2013-04-24 13:11:00,
2013-04-24 09:16:00,34.0,6.5,29.75,NW,315,4.6,4.6,31,0.00,CLR,,0.00,WeatherDisplay:10.37,2013-04-24 13:16:00,
2013-04-24 09:21:00,34.2,6.6,29.75,NW,315,4.6,4.6,31,0.00,CLR,,0.00,WeatherDisplay:10.37,2013-04-24 13:21:00,
2013-04-24 09:26:00,34.0,6.5,29.75,NNW,337,4.7,4.7,31,0.00,CLR,,0.00,WeatherDisplay:10.37,2013-04-24 13:26:00,
2013-04-24 09:31:00,34.0,6.5,29.77,NNW,337,4.7,4.7,31,0.00,CLR,,0.00,WeatherDisplay:10.37,2013-04-24 13:31:00,
2013-04-24 09:36:00,34.0,6.5,29.77,WNW,292,4.7,4.7,31,0.00,CLR,,0.00,WeatherDisplay:10.37,2013-04-24 13:36:00,
2013-04-24 09:41:00,34.3,6.8,29.77,NW,315,4.7,4.7,31,0.00,CLR,,0.00,WeatherDisplay:10.37,2013-04-24 13:41:00,
2013-04-24 09:46:00,34.3,6.8,29.71,NW,315,4.7,4.7,31,0.00,CLR,,0.00,WeatherDisplay:10.37,2013-04-24 13:46:00,
2013-04-24 09:51:00,34.2,6.6,29.72,NNW,337,5.5,5.5,31,0.00,CLR,,0.00,WeatherDisplay:10.37,2013-04-24 13:51:00,
2013-04-24 09:56:00,34.2,6.6,29.71,NNW,337,5.8,5.8,31,0.00,CLR,,0.00,WeatherDisplay:10.37,2013-04-24 13:56:00,
2013-04-24 10:01:00,34.2,6.6,29.71,NNW,337,5.8,5.8,31,0.00,CLR,,0.00,WeatherDisplay:10.37,2013-04-24 14:01:00,
2013-04-24 10:06:00,34.2,6.6,29.71,NNW,337,5.8,5.8,31,0.00,CLR,,0.00,WeatherDisplay:10.37,2013-04-24 14:06:00,
2013-04-24 10:11:00,34.2,6.6,29.72,NNW,337,5.8,5.8,31,0.00,CLR,,0.00,WeatherDisplay:10.37,2013-04-24 14:11:00,
2013-04-24 10:16:00,34.2,6.6,29.72,NNW,337,5.8,5.8,31,0.00,CLR,,0.00,WeatherDisplay:10.37,2013-04-24 14:16:00,
2013-04-24 10:21:00,34.2,6.6,29.72,NNW,337,5.8,5.8,31,0.00,CLR,,0.00,WeatherDisplay:10.37,2013-04-24 14:21:00,
2013-04-24 10:26:00,34.2,6.6,29.73,NNW,337,4.9,4.9,31,0.00,CLR,,0.00,WeatherDisplay:10.37,2013-04-24 14:26:00,
2013-04-24 10:31:00,34.2,6.6,29.73,NNW,337,4.9,4.9,31,0.00,CLR,,0.00,WeatherDisplay:10.37,2013-04-24 14:31:00,
2013-04-24 10:36:00,34.2,6.6,29.72,NNW,337,4.9,4.9,31,0.00,CLR,,0.00,WeatherDisplay:10.37,2013-04-24 14:36:00,
2013-04-24 10:41:00,34.3,6.8,29.73,NW,315,4.9,4.9,31,0.00,CLR,,0.00,WeatherDisplay:10.37,2013-04-24 14:41:00,
2013-04-24 10:46:00,34.3,6.8,29.73,NW,315,4.9,4.9,31,0.00,CLR,,0.00,WeatherDisplay:10.37,2013-04-24 14:46:00,
2013-04-24 10:51:00,34.3,6.8,29.73,NNW,337,4.9,4.9,31,0.00,CLR,,0.00,WeatherDisplay:10.37,2013-04-24 14:51:00,
2013-04-24 10:56:00,34.3,6.8,29.72,NNW,337,4.9,4.9,31,0.00,CLR,,0.00,WeatherDisplay:10.37,2013-04-24 14:56:00,
2013-04-24 11:01:00,34.3,6.8,29.69,NW,315,4.9,4.9,31,0.00,CLR,,0.00,WeatherDisplay:10.37,2013-04-24 15:01:00,
2013-04-24 11:09:00,34.3,6.8,29.75,WNW,292,3.6,3.6,31,0.00,CLR,,0.00,WeatherDisplay:10.37,2013-04-24 15:09:00,
2013-04-24 11:14:00,34.3,6.8,29.75,WNW,292,3.6,3.6,31,0.00,CLR,,0.00,WeatherDisplay:10.37,2013-04-24 15:14:00,
2013-04-24 11:19:00,34.3,6.8,29.75,WNW,292,3.6,3.6,31,0.00,CLR,,0.00,WeatherDisplay:10.37,2013-04-24 15:19:00,
2013-04-24 11:24:00,34.7,7.1,29.74,NW,315,4.0,4.0,31,0.00,CLR,,0.00,WeatherDisplay:10.37,2013-04-24 15:24:00,
2013-04-24 11:29:00,34.7,7.1,29.73,NNW,337,4.0,4.0,31,0.00,CLR,,0.00,WeatherDisplay:10.37,2013-04-24 15:29:00,
2013-04-24 11:34:00,34.7,7.1,29.73,NNW,337,4.0,4.0,31,0.00,CLR,,0.00,WeatherDisplay:10.37,2013-04-24 15:34:00,
2013-04-24 11:39:00,34.7,7.1,29.73,NNW,337,4.0,4.0,31,0.00,CLR,,0.00,WeatherDisplay:10.37,2013-04-24 15:39:00,
2013-04-24 11:44:00,34.7,7.1,29.74,NNW,337,4.0,4.0,31,0.00,CLR,,0.00,WeatherDisplay:10.37,2013-04-24 15:44:00,
2013-04-24 11:49:00,34.7,7.1,29.75,NNW,337,4.0,4.0,31,0.00,CLR,,0.00,WeatherDisplay:10.37,2013-04-24 15:49:00,
2013-04-24 11:54:00,34.7,7.1,29.75,NNW,337,4.0,4.0,31,0.00,CLR,,0.00,WeatherDisplay:10.37,2013-04-24 15:54:00,
2013-04-24 11:59:00,34.7,7.1,29.75,NNW,337,4.0,4.0,31,0.00,CLR,,0.00,WeatherDisplay:10.37,2013-04-24 15:59:00,
2013-04-24 12:04:00,34.7,7.1,29.77,NNW,337,4.0,4.0,31,0.00,CLR,,0.00,WeatherDisplay:10.37,2013-04-24 16:04:00,
2013-04-24 12:09:00,34.7,7.1,29.77,NNW,337,4.0,4.0,31,0.00,CLR,,0.00,WeatherDisplay:10.37,2013-04-24 16:09:00,
2013-04-24 12:14:00,35.4,7.7,29.77,NNW,337,4.0,4.0,31,0.00,CLR,,0.00,WeatherDisplay:10.37,2013-04-24 16:14:00,
2013-04-24 12:19:00,35.4,7.7,29.73,NNW,337,3.8,3.8,31,0.00,CLR,,0.00,WeatherDisplay:10.37,2013-04-24 16:19:00,
2013-04-24 12:24:00,35.4,7.7,29.74,NNW,337,3.8,3.8,31,0.00,CLR,,0.00,WeatherDisplay:10.37,2013-04-24 16:24:00,
2013-04-24 12:29:00,35.4,7.7,29.75,NNW,337,3.8,3.8,31,0.00,CLR,,0.00,WeatherDisplay:10.37,2013-04-24 16:29:00,
2013-04-24 12:34:00,35.4,7.7,29.74,NNW,337,3.8,3.8,31,0.00,CLR,,0.00,WeatherDisplay:10.37,2013-04-24 16:34:00,
2013-04-24 12:39:00,35.4,7.7,29.75,NNW,337,3.8,3.8,31,0.00,CLR,,0.00,WeatherDisplay:10.37,2013-04-24 16:39:00,
2013-04-24 12:44:00,35.4,7.7,29.74,WNW,292,3.8,3.8,31,0.00,CLR,,0.00,WeatherDisplay:10.37,2013-04-24 16:44:00,
2013-04-24 12:49:00,35.4,7.7,29.74,WNW,292,3.8,3.8,31,0.00,CLR,,0.00,WeatherDisplay:10.37,2013-04-24 16:49:00,
2013-04-24 12:54:00,35.4,7.7,29.73,WNW,292,3.8,3.8,31,0.00,CLR,,0.00,WeatherDisplay:10.37,2013-04-24 16:54:00,
2013-04-24 12:59:00,35.4,7.7,29.74,WNW,292,3.8,3.8,31,0.00,CLR,,0.00,WeatherDisplay:10.37,2013-04-24 16:59:00,
2013-04-24 13:04:00,35.4,7.7,29.73,WNW,292,3.8,3.8,31,0.00,CLR,,0.00,WeatherDisplay:10.37,2013-04-24 17:04:00,
2013-04-24 13:09:00,35.4,7.7,29.74,WNW,292,3.8,3.8,31,0.00,CLR,,0.00,WeatherDisplay:10.37,2013-04-24 17:09:00,
2013-04-24 13:14:00,35.2,7.6,29.75,WNW,292,3.8,3.8,31,0.00,CLR,,0.00,WeatherDisplay:10.37,2013-04-24 17:14:00,
2013-04-24 13:19:00,35.2,7.6,29.75,NW,315,3.8,3.8,31,0.00,CLR,,0.00,WeatherDisplay:10.37,2013-04-24 17:19:00,
2013-04-24 13:24:00,35.2,7.6,29.75,NW,315,3.8,3.8,31,0.00,CLR,,0.00,WeatherDisplay:10.37,2013-04-24 17:24:00,
2013-04-24 13:29:00,35.2,7.6,29.75,NW,315,3.8,3.8,31,0.00,CLR,,0.00,WeatherDisplay:10.37,2013-04-24 17:29:00,
2013-04-24 13:34:00,35.2,7.6,29.73,NW,315,3.8,3.8,31,0.00,CLR,,0.00,WeatherDisplay:10.37,2013-04-24 17:34:00,
2013-04-24 13:39:00,35.2,7.6,29.73,NW,315,3.8,3.8,31,0.00,CLR,,0.00,WeatherDisplay:10.37,2013-04-24 17:39:00,
2013-04-24 13:44:00,36.0,8.2,29.78,WNW,292,3.8,3.8,31,0.00,CLR,,0.00,WeatherDisplay:10.37,2013-04-24 17:44:00,
2013-04-24 13:49:00,36.1,8.4,29.78,WNW,292,3.8,3.8,31,0.00,CLR,,0.00,WeatherDisplay:10.37,2013-04-24 17:49:00,
2013-04-24 13:54:00,36.1,8.4,29.78,WNW,292,3.8,3.8,31,0.00,CLR,,0.00,WeatherDisplay:10.37,2013-04-24 17:54:00,
2013-04-24 13:59:00,36.1,8.4,29.78,WNW,292,3.8,3.8,31,0.00,CLR,,0.00,WeatherDisplay:10.37,2013-04-24 17:59:00,
2013-04-24 14:04:00,36.3,8.5,29.78,WSW,247,3.8,3.8,31,0.00,CLR,,0.00,WeatherDisplay:10.37,2013-04-24 18:04:00,
2013-04-24 14:09:00,36.3,8.5,29.74,WSW,247,3.8,3.8,31,0.00,CLR,,0.00,WeatherDisplay:10.37,2013-04-24 18:09:00,
2013-04-24 14:14:00,36.3,8.5,29.74,WSW,247,3.8,3.8,31,0.00,CLR,,0.00,WeatherDisplay:10.37,2013-04-24 18:14:00,
2013-04-24 14:19:00,37.6,9.6,29.75,WSW,247,3.8,3.8,31,0.00,CLR,,0.00,WeatherDisplay:10.37,2013-04-24 18:19:00,
2013-04-24 14:24:00,37.8,9.8,29.75,WNW,292,3.8,3.8,31,0.00,CLR,,0.00,WeatherDisplay:10.37,2013-04-24 18:24:00,
2013-04-24 14:29:00,37.8,9.8,29.75,WNW,292,3.8,3.8,31,0.00,CLR,,0.00,WeatherDisplay:10.37,2013-04-24 18:29:00,
2013-04-24 14:34:00,37.8,9.8,29.75,WNW,292,3.8,3.8,31,0.00,CLR,,0.00,WeatherDisplay:10.37,2013-04-24 18:34:00,
2013-04-24 14:39:00,39.0,10.9,29.74,NW,315,3.8,3.8,31,0.00,CLR,,0.00,WeatherDisplay:10.37,2013-04-24 18:39:00,
2013-04-24 14:44:00,39.0,10.9,29.75,NW,315,3.8,3.8,31,0.00,CLR,,0.00,WeatherDisplay:10.37,2013-04-24 18:44:00,
2013-04-24 14:49:00,39.0,10.9,29.75,NW,315,3.8,3.8,31,0.00,CLR,,0.00,WeatherDisplay:10.37,2013-04-24 18:49:00,
2013-04-24 14:54:00,39.0,10.9,29.75,NW,315,4.0,4.0,31,0.00,CLR,,0.00,WeatherDisplay:10.37,2013-04-24 18:54:00,
2013-04-24 14:59:00,39.0,10.9,29.75,NW,315,4.0,4.0,31,0.00,CLR,,0.00,WeatherDisplay:10.37,2013-04-24 18:59:00,
2013-04-24 15:04:00,38.5,10.4,29.74,NNW,337,4.0,4.0,31,0.00,CLR,,0.00,WeatherDisplay:10.37,2013-04-24 19:04:00,
2013-04-24 15:09:00,38.5,10.4,29.74,NNW,337,4.0,4.0,31,0.00,CLR,,0.00,WeatherDisplay:10.37,2013-04-24 19:09:00,
2013-04-24 15:14:00,38.5,10.4,29.80,NNW,337,3.5,3.5,31,0.00,CLR,,0.00,WeatherDisplay:10.37,2013-04-24 19:14:00,
2013-04-24 15:19:00,38.5,10.4,29.78,NNW,337,3.5,3.5,31,0.00,CLR,,0.00,WeatherDisplay:10.37,2013-04-24 19:19:00,
2013-04-24 15:24:00,38.5,10.4,29.77,NNW,337,3.5,3.5,31,0.00,CLR,,0.00,WeatherDisplay:10.37,2013-04-24 19:24:00,
2013-04-24 15:29:00,38.5,10.4,29.78,NNW,337,3.5,3.5,31,0.00,CLR,,0.00,WeatherDisplay:10.37,2013-04-24 19:29:00,
2013-04-24 15:34:00,38.5,10.4,29.78,NNW,337,3.5,3.5,31,0.00,CLR,,0.00,WeatherDisplay:10.37,2013-04-24 19:34:00,
2013-04-24 15:39:00,38.5,10.4,29.80,NNW,337,3.5,3.5,31,0.00,CLR,,0.00,WeatherDisplay:10.37,2013-04-24 19:39:00,
2013-04-24 15:44:00,38.5,10.4,29.80,NNW,337,3.5,3.5,31,0.00,CLR,,0.00,WeatherDisplay:10.37,2013-04-24 19:44:00,
2013-04-24 15:49:00,38.8,10.7,29.80,NNW,337,7.1,7.1,31,0.00,CLR,,0.00,WeatherDisplay:10.37,2013-04-24 19:49:00,
2013-04-24 15:54:00,38.8,10.7,29.81,NNW,337,7.1,7.1,31,0.00,CLR,,0.00,WeatherDisplay:10.37,2013-04-24 19:54:00,
2013-04-24 15:59:00,38.8,10.7,29.81,NNW,337,7.1,7.1,31,0.00,CLR,,0.00,WeatherDisplay:10.37,2013-04-24 19:59:00,
2013-04-24 16:04:00,38.8,10.7,29.81,NNW,337,7.1,7.1,31,0.00,CLR,,0.00,WeatherDisplay:10.37,2013-04-24 20:04:00,
2013-04-24 16:09:00,38.8,10.7,29.81,NNW,337,7.1,7.1,31,0.00,CLR,,0.00,WeatherDisplay:10.37,2013-04-24 20:09:00,
2013-04-24 16:14:00,40.1,11.8,29.81,West,270,7.1,7.1,31,0.00,CLR,,0.00,WeatherDisplay:10.37,2013-04-24 20:14:00,
2013-04-24 16:19:00,40.1,11.8,29.81,West,270,4.6,4.6,31,0.00,CLR,,0.00,WeatherDisplay:10.37,2013-04-24 20:19:00,
2013-04-24 16:24:00,40.5,12.2,29.83,WNW,292,5.3,5.3,31,0.00,CLR,,0.00,WeatherDisplay:10.37,2013-04-24 20:24:00,
2013-04-24 16:29:00,40.5,12.2,29.81,WNW,292,5.8,5.8,31,0.00,CLR,,0.00,WeatherDisplay:10.37,2013-04-24 20:29:00,
2013-04-24 16:34:00,40.5,12.2,29.83,WNW,292,5.8,5.8,31,0.00,CLR,,0.00,WeatherDisplay:10.37,2013-04-24 20:34:00,
2013-04-24 16:39:00,40.5,12.2,29.83,WNW,292,5.8,5.8,31,0.00,CLR,,0.00,WeatherDisplay:10.37,2013-04-24 20:39:00,
2013-04-24 16:44:00,40.5,12.2,29.77,WNW,292,5.8,5.8,31,0.00,CLR,,0.00,WeatherDisplay:10.37,2013-04-24 20:44:00,
2013-04-24 16:49:00,40.5,12.2,29.83,WNW,292,5.8,5.8,31,0.00,CLR,,0.00,WeatherDisplay:10.37,2013-04-24 20:49:00,
2013-04-24 16:54:00,40.5,12.2,29.77,WNW,292,5.8,5.8,31,0.00,CLR,,0.00,WeatherDisplay:10.37,2013-04-24 20:54:00,
2013-04-24 16:59:00,40.5,12.2,29.77,WNW,292,5.8,5.8,31,0.00,CLR,,0.00,WeatherDisplay:10.37,2013-04-24 20:59:00,
2013-04-24 17:04:00,40.5,12.2,29.77,WNW,292,5.8,5.8,31,0.00,CLR,,0.00,WeatherDisplay:10.37,2013-04-24 21:04:00,
2013-04-24 17:09:00,40.5,12.2,29.78,WNW,292,5.8,5.8,31,0.00,CLR,,0.00,WeatherDisplay:10.37,2013-04-24 21:09:00,
2013-04-24 17:14:00,41.0,12.6,29.78,WNW,292,5.8,5.8,31,0.00,CLR,,0.00,WeatherDisplay:10.37,2013-04-24 21:14:00,
2013-04-24 17:19:00,41.0,13.4,29.84,WNW,292,5.8,5.8,32,0.00,CLR,,0.00,WeatherDisplay:10.37,2013-04-24 21:19:00,
2013-04-24 17:24:00,42.3,13.7,29.84,WSW,247,5.8,5.8,31,0.00,CLR,,0.00,WeatherDisplay:10.37,2013-04-24 21:24:00,
2013-04-24 17:29:00,42.3,14.5,29.84,WSW,247,5.8,5.8,32,0.00,CLR,,0.00,WeatherDisplay:10.37,2013-04-24 21:29:00,
2013-04-24 17:34:00,42.3,14.5,29.84,WSW,247,5.8,5.8,32,0.00,CLR,,0.00,WeatherDisplay:10.37,2013-04-24 21:34:00,
2013-04-24 17:39:00,42.3,14.5,29.83,WSW,247,5.8,5.8,32,0.00,CLR,,0.00,WeatherDisplay:10.37,2013-04-24 21:39:00,
2013-04-24 17:44:00,42.3,14.5,29.83,WSW,247,5.8,5.8,32,0.00,CLR,,0.00,WeatherDisplay:10.37,2013-04-24 21:44:00,
2013-04-24 17:49:00,42.3,14.5,29.83,WSW,247,5.8,5.8,32,0.00,CLR,,0.00,WeatherDisplay:10.37,2013-04-24 21:49:00,
2013-04-24 17:54:00,42.3,14.5,29.83,WSW,247,5.8,5.8,32,0.00,CLR,,0.00,WeatherDisplay:10.37,2013-04-24 21:54:00,
2013-04-24 17:59:00,42.4,14.6,29.83,WSW,247,5.8,5.8,32,0.00,CLR,,0.00,WeatherDisplay:10.37,2013-04-24 21:59:00,
2013-04-24 18:04:00,42.3,14.5,29.83,WSW,247,5.8,5.8,32,0.00,CLR,,0.00,WeatherDisplay:10.37,2013-04-24 22:04:00,
2013-04-24 18:09:00,42.3,14.5,29.83,WSW,247,5.8,5.8,32,0.00,CLR,,0.00,WeatherDisplay:10.37,2013-04-24 22:09:00,
2013-04-24 18:14:00,42.3,14.5,29.83,WSW,247,5.8,5.8,32,0.00,CLR,,0.00,WeatherDisplay:10.37,2013-04-24 22:14:00,
2013-04-24 18:19:00,42.6,14.8,29.84,WSW,247,4.9,4.9,32,0.00,CLR,,0.00,WeatherDisplay:10.37,2013-04-24 22:19:00,
2013-04-24 18:24:00,42.6,14.8,29.84,WSW,247,4.9,4.9,32,0.00,CLR,,0.00,WeatherDisplay:10.37,2013-04-24 22:24:00,
2013-04-24 18:29:00,43.0,15.1,29.84,WSW,247,5.8,5.8,32,0.00,CLR,,0.00,WeatherDisplay:10.37,2013-04-24 22:29:00,
2013-04-24 18:34:00,43.3,15.4,29.84,WSW,247,5.8,5.8,32,0.00,CLR,,0.00,WeatherDisplay:10.37,2013-04-24 22:34:00,
2013-04-24 18:39:00,43.5,16.3,29.83,WSW,247,5.8,5.8,33,0.00,CLR,,0.00,WeatherDisplay:10.37,2013-04-24 22:39:00,
2013-04-24 18:44:00,43.7,16.4,29.83,WSW,247,5.8,5.8,33,0.00,CLR,,0.00,WeatherDisplay:10.37,2013-04-24 22:44:00,
2013-04-24 18:49:00,43.7,16.4,29.81,WSW,247,5.8,5.8,33,0.00,CLR,,0.00,WeatherDisplay:10.37,2013-04-24 22:49:00,
2013-04-24 18:54:00,43.7,17.1,29.88,WSW,247,5.8,5.8,34,0.00,CLR,,0.00,WeatherDisplay:10.37,2013-04-24 22:54:00,
2013-04-24 18:59:00,43.0,15.1,29.88,West,270,6.1,6.1,32,0.00,CLR,,0.00,WeatherDisplay:10.37,2013-04-24 22:59:00,
2013-04-24 19:04:00,42.8,15.6,29.87,West,270,6.1,6.1,33,0.00,CLR,,0.00,WeatherDisplay:10.37,2013-04-24 23:04:00,
2013-04-24 19:09:00,42.8,15.6,29.88,West,270,4.7,4.7,33,0.00,CLR,,0.00,WeatherDisplay:10.37,2013-04-24 23:09:00,
2013-04-24 19:14:00,42.8,15.6,29.87,West,270,4.7,4.7,33,0.00,CLR,,0.00,WeatherDisplay:10.37,2013-04-24 23:14:00,
2013-04-24 19:19:00,42.8,15.6,29.86,West,270,4.7,4.7,33,0.00,CLR,,0.00,WeatherDisplay:10.37,2013-04-24 23:19:00,
2013-04-24 19:24:00,42.8,15.6,29.85,West,270,4.7,4.7,33,0.00,CLR,,0.00,WeatherDisplay:10.37,2013-04-24 23:24:00,
2013-04-24 19:29:00,42.6,15.5,29.85,West,270,4.7,4.7,33,0.00,CLR,,0.00,WeatherDisplay:10.37,2013-04-24 23:29:00,
2013-04-24 19:34:00,42.6,15.5,29.84,West,270,4.7,4.7,33,0.00,CLR,,0.00,WeatherDisplay:10.37,2013-04-24 23:34:00,
2013-04-24 19:39:00,42.4,15.3,29.83,West,270,4.7,5.1,33,0.00,CLR,,0.00,WeatherDisplay:10.37,2013-04-24 23:39:00,
2013-04-24 19:44:00,42.4,15.3,29.83,West,270,5.1,5.1,33,0.00,CLR,,0.00,WeatherDisplay:10.37,2013-04-24 23:44:00,
2013-04-24 19:49:00,42.3,15.2,29.83,West,270,5.1,5.1,33,0.00,CLR,,0.00,WeatherDisplay:10.37,2013-04-24 23:49:00,
2013-04-24 19:54:00,42.3,15.2,29.84,West,270,5.1,5.1,33,0.00,CLR,,0.00,WeatherDisplay:10.37,2013-04-24 23:54:00,
2013-04-24 19:59:00,41.9,14.8,29.84,West,270,5.1,5.1,33,0.00,CLR,,0.00,WeatherDisplay:10.37,2013-04-24 23:59:00,
2013-04-24 20:04:00,41.9,14.8,29.83,West,270,5.1,5.1,33,0.00,CLR,,0.00,WeatherDisplay:10.37,2013-04-25 00:04:00,
2013-04-24 20:09:00,41.5,14.5,29.89,West,270,2.6,2.6,33,0.00,CLR,,0.00,WeatherDisplay:10.37,2013-04-25 00:09:00,
2013-04-24 20:14:00,41.2,14.2,29.88,West,270,2.6,2.6,33,0.00,CLR,,0.00,WeatherDisplay:10.37,2013-04-25 00:14:00,
2013-04-24 20:19:00,41.0,14.1,29.88,West,270,3.6,3.6,33,0.00,CLR,,0.00,WeatherDisplay:10.37,2013-04-25 00:19:00,
2013-04-24 20:24:00,41.0,14.1,29.88,West,270,3.6,3.6,33,0.00,CLR,,0.00,WeatherDisplay:10.37,2013-04-25 00:24:00,
2013-04-24 20:29:00,40.8,13.9,29.89,West,270,3.6,3.6,33,0.00,CLR,,0.00,WeatherDisplay:10.37,2013-04-25 00:29:00,
2013-04-24 20:34:00,40.6,13.7,29.89,West,270,3.6,3.6,33,0.00,CLR,,0.00,WeatherDisplay:10.37,2013-04-25 00:34:00,
2013-04-24 20:39:00,40.5,13.6,29.90,West,270,3.6,3.6,33,0.00,CLR,,0.00,WeatherDisplay:10.37,2013-04-25 00:39:00,
2013-04-24 20:44:00,40.3,13.4,29.90,West,270,3.6,3.6,33,0.00,CLR,,0.00,WeatherDisplay:10.37,2013-04-25 00:44:00,
2013-04-24 20:49:00,40.3,13.4,29.91,West,270,3.6,3.6,33,0.00,CLR,,0.00,WeatherDisplay:10.37,2013-04-25 00:49:00,
2013-04-24 20:54:00,40.1,13.3,29.92,West,270,3.6,3.6,33,0.00,CLR,,0.00,WeatherDisplay:10.37,2013-04-25 00:54:00,
2013-04-24 20:59:00,39.7,12.9,29.90,West,270,3.6,3.6,33,0.00,CLR,,0.00,WeatherDisplay:10.37,2013-04-25 00:59:00,
2013-04-24 21:04:00,39.6,12.8,29.91,West,270,3.6,3.6,33,0.00,CLR,,0.00,WeatherDisplay:10.37,2013-04-25 01:04:00,
2013-04-24 21:09:00,39.6,12.1,29.92,West,270,2.8,2.8,32,0.00,CLR,,0.00,WeatherDisplay:10.37,2013-04-25 01:09:00,
2013-04-24 21:14:00,39.4,11.9,29.92,West,270,3.5,3.5,32,0.00,CLR,,0.00,WeatherDisplay:10.37,2013-04-25 01:14:00,
2013-04-24 21:19:00,39.4,12.6,29.93,West,270,3.5,3.5,33,0.00,CLR,,0.00,WeatherDisplay:10.37,2013-04-25 01:19:00,
2013-04-24 21:24:00,39.2,11.8,29.93,WSW,247,5.1,5.1,32,0.00,CLR,,0.00,WeatherDisplay:10.37,2013-04-25 01:24:00,
2013-04-24 21:29:00,39.2,11.8,29.93,WSW,247,5.1,5.1,32,0.00,CLR,,0.00,WeatherDisplay:10.37,2013-04-25 01:29:00,
2013-04-24 21:34:00,39.2,12.5,29.90,WSW,247,5.1,5.1,33,0.00,CLR,,0.00,WeatherDisplay:10.37,2013-04-25 01:34:00,
2013-04-24 21:39:00,39.2,11.8,29.90,WSW,247,5.1,5.1,32,0.00,CLR,,0.00,WeatherDisplay:10.37,2013-04-25 01:39:00,
2013-04-24 21:44:00,39.2,12.5,29.91,WSW,247,5.1,5.1,33,0.00,CLR,,0.00,WeatherDisplay:10.37,2013-04-25 01:44:00,
2013-04-24 21:49:00,39.2,11.8,29.91,WSW,247,5.1,5.1,32,0.00,CLR,,0.00,WeatherDisplay:10.37,2013-04-25 01:49:00,
2013-04-24 21:54:00,39.0,11.6,29.92,WSW,247,5.1,5.1,32,0.00,CLR,,0.00,WeatherDisplay:10.37,2013-04-25 01:54:00,
2013-04-24 21:59:00,38.8,11.4,29.93,WSW,247,5.1,5.1,32,0.00,CLR,,0.00,WeatherDisplay:10.37,2013-04-25 01:59:00,
2013-04-24 22:04:00,38.7,11.3,29.93,WSW,247,5.1,5.1,32,0.00,CLR,,0.00,WeatherDisplay:10.37,2013-04-25 02:04:00,
2013-04-24 22:09:00,38.7,11.3,29.93,WSW,247,4.0,4.0,32,0.00,CLR,,0.00,WeatherDisplay:10.37,2013-04-25 02:09:00,
2013-04-24 22:14:00,38.7,11.3,29.95,WSW,247,4.0,4.0,32,0.00,CLR,,0.00,WeatherDisplay:10.37,2013-04-25 02:14:00,
2013-04-24 22:19:00,38.5,11.1,29.95,WSW,247,4.0,4.0,32,0.00,CLR,,0.00,WeatherDisplay:10.37,2013-04-25 02:19:00,
2013-04-24 22:24:00,38.5,11.1,29.95,WSW,247,4.0,4.0,32,0.00,CLR,,0.00,WeatherDisplay:10.37,2013-04-25 02:24:00,
2013-04-24 22:29:00,38.1,10.8,29.96,WSW,247,4.0,4.5,32,0.00,CLR,,0.00,WeatherDisplay:10.37,2013-04-25 02:29:00,
2013-04-24 22:34:00,38.1,10.8,29.96,WSW,247,4.6,4.6,32,0.00,CLR,,0.00,WeatherDisplay:10.37,2013-04-25 02:34:00,
2013-04-24 22:39:00,37.8,10.5,29.98,WSW,247,4.6,4.6,32,0.00,CLR,,0.00,WeatherDisplay:10.37,2013-04-25 02:39:00,
2013-04-24 22:44:00,37.6,10.3,29.99,WSW,247,4.6,4.6,32,0.00,CLR,,0.00,WeatherDisplay:10.37,2013-04-25 02:44:00,
2013-04-24 22:49:00,37.4,10.2,29.99,WSW,247,4.6,4.6,32,0.00,CLR,,0.00,WeatherDisplay:10.37,2013-04-25 02:49:00,
2013-04-24 22:54:00,37.2,10.0,29.99,WSW,247,4.6,4.6,32,0.00,CLR,,0.00,WeatherDisplay:10.37,2013-04-25 02:54:00,
2013-04-24 22:59:00,37.0,11.2,29.94,WSW,247,4.6,4.6,34,0.00,CLR,,0.00,WeatherDisplay:10.37,2013-04-25 02:59:00,
2013-04-24 23:04:00,36.9,11.1,29.94,WSW,247,4.6,4.6,34,0.00,CLR,,0.00,WeatherDisplay:10.37,2013-04-25 03:04:00,
2013-04-24 23:09:00,36.7,10.9,29.95,WSW,247,2.6,2.6,34,0.00,CLR,,0.00,WeatherDisplay:10.37,2013-04-25 03:09:00,
2013-04-24 23:14:00,36.7,10.9,29.95,WSW,247,2.6,2.6,34,0.00,CLR,,0.00,WeatherDisplay:10.37,2013-04-25 03:14:00,
2013-04-24 23:19:00,36.9,11.1,29.95,WSW,247,4.6,4.6,34,0.00,CLR,,0.00,WeatherDisplay:10.37,2013-04-25 03:19:00,
2013-04-24 23:24:00,36.7,10.9,29.96,WSW,247,4.6,4.6,34,0.00,CLR,,0.00,WeatherDisplay:10.37,2013-04-25 03:24:00,
2013-04-24 23:29:00,36.7,10.9,29.97,WSW,247,4.6,4.6,34,0.00,CLR,,0.00,WeatherDisplay:10.37,2013-04-25 03:29:00,
2013-04-24 23:34:00,36.7,10.9,29.97,WSW,247,4.6,4.6,34,0.00,CLR,,0.00,WeatherDisplay:10.37,2013-04-25 03:34:00,
2013-04-24 23:39:00,36.7,10.9,29.97,WSW,247,4.6,4.6,34,0.00,CLR,,0.00,WeatherDisplay:10.37,2013-04-25 03:39:00,
2013-04-24 23:44:00,36.7,10.9,29.98,WSW,247,5.3,5.3,34,0.00,CLR,,0.00,WeatherDisplay:10.37,2013-04-25 03:44:00,
2013-04-24 23:49:00,36.5,10.7,29.98,WSW,247,5.8,5.8,34,0.00,CLR,,0.00,WeatherDisplay:10.37,2013-04-25 03:49:00,
2013-04-24 23:54:00,36.5,10.7,29.99,WSW,247,5.8,5.8,34,0.00,CLR,,0.00,WeatherDisplay:10.37,2013-04-25 03:54:00,
2013-04-24 23:59:00,36.3,10.6,29.99,WSW,247,5.8,5.8,34,0.00,CLR,,0.00,WeatherDisplay:10.37,2013-04-25 03:59:00,